createdAt,value
2018-12-08T00:03:38.448Z,25.53
2018-12-08T00:08:45.082Z,21.77
2018-12-08T00:13:49.631Z,21.27
2018-12-08T00:18:53.980Z,25.83
2018-12-08T00:23:59.127Z,19.53
2018-12-08T00:29:03.382Z,20.07
2018-12-08T00:34:09.153Z,24.93
2018-12-08T00:39:13.486Z,22.67
2018-12-08T00:44:17.994Z,23.13
2018-12-08T00:49:22.508Z,23.33
2018-12-08T00:54:26.770Z,28.63
2018-12-08T00:59:32.230Z,32.90
2018-12-08T01:04:51.382Z,25.13
2018-12-08T01:09:58.200Z,25.80
2018-12-08T01:15:04.033Z,28.53
2018-12-08T01:20:10.144Z,27.93
2018-12-08T01:25:14.624Z,28.43
2018-12-08T01:30:18.866Z,25.27
2018-12-08T01:35:23.628Z,23.63
2018-12-08T01:40:27.880Z,24.87
2018-12-08T01:45:37.199Z,25.67
2018-12-08T01:50:41.481Z,29.20
2018-12-08T01:55:45.811Z,28.83
2018-12-08T02:00:50.033Z,22.93
2018-12-08T02:05:55.531Z,29.57
2018-12-08T02:11:00.095Z,32.43
2018-12-08T02:16:04.403Z,27.30
2018-12-08T02:21:08.534Z,34.07
2018-12-08T02:26:13.110Z,29.77
2018-12-08T02:31:17.554Z,23.07
2018-12-08T02:36:26.673Z,24.43
2018-12-08T02:41:31.126Z,26.77
2018-12-08T02:46:35.353Z,30.50
2018-12-08T02:51:41.328Z,27.30
2018-12-08T02:56:50.628Z,26.33
2018-12-08T03:01:55.199Z,23.10
2018-12-08T03:06:59.513Z,27.43
2018-12-08T03:12:05.019Z,30.73
2018-12-08T03:17:09.251Z,26.67
2018-12-08T03:22:13.470Z,36.53
2018-12-08T03:27:17.752Z,33.67
2018-12-08T03:32:22.111Z,28.83
2018-12-08T03:37:26.337Z,26.90
2018-12-08T03:42:30.944Z,30.77
2018-12-08T03:47:36.081Z,38.10
2018-12-08T03:52:40.559Z,32.37
2018-12-08T03:57:46.178Z,31.33
2018-12-08T04:02:50.470Z,31.90
2018-12-08T04:07:54.738Z,29.80
2018-12-08T04:12:59.100Z,27.40
2018-12-08T04:18:03.602Z,33.23
2018-12-08T04:23:08.677Z,37.77
2018-12-08T04:28:12.864Z,37.10
2018-12-08T04:33:17.103Z,32.27
2018-12-08T04:38:21.453Z,34.30
2018-12-08T04:43:25.766Z,25.80
2018-12-08T04:48:30.304Z,29.23
2018-12-08T04:53:34.461Z,29.23
2018-12-08T04:58:38.619Z,32.63
2018-12-08T05:03:42.777Z,32.37
2018-12-08T05:08:46.981Z,32.60
2018-12-08T05:13:51.463Z,32.77
2018-12-08T05:18:55.670Z,34.33
2018-12-08T05:24:00.502Z,30.10
2018-12-08T05:29:06.785Z,30.60
2018-12-08T05:34:11.124Z,25.20
2018-12-08T05:39:15.391Z,33.63
2018-12-08T05:44:19.953Z,36.30
2018-12-08T05:49:24.362Z,28.97
2018-12-08T05:54:28.587Z,36.53
2018-12-08T05:59:32.786Z,36.63
2018-12-08T06:04:42.095Z,39.63
2018-12-08T06:09:46.464Z,40.43
2018-12-08T06:14:50.782Z,34.67
2018-12-08T06:19:54.988Z,32.57
2018-12-08T06:25:01.743Z,30.50
2018-12-08T06:30:08.423Z,33.07
2018-12-08T06:35:12.940Z,36.23
2018-12-08T06:40:17.358Z,30.83
2018-12-08T06:45:22.750Z,30.90
2018-12-08T06:50:27.140Z,25.17
2018-12-08T06:55:36.632Z,27.60
2018-12-08T07:00:41.076Z,24.47
2018-12-08T07:05:45.410Z,29.20
2018-12-08T07:10:50.077Z,30.80
2018-12-08T07:15:54.332Z,29.27
2018-12-08T07:20:58.744Z,31.73
2018-12-08T07:26:08.352Z,34.53
2018-12-08T07:31:12.928Z,32.03
2018-12-08T07:36:17.385Z,37.27
2018-12-08T07:41:21.704Z,29.60
2018-12-08T07:46:35.698Z,35.80
2018-12-08T07:51:40.287Z,31.57
2018-12-08T07:56:44.799Z,29.93
2018-12-08T08:01:49.125Z,33.47
2018-12-08T08:06:53.386Z,32.20
2018-12-08T08:11:57.641Z,32.50
2018-12-08T08:17:02.047Z,26.87
2018-12-08T08:22:06.496Z,22.43
2018-12-08T08:27:12.749Z,25.20
2018-12-08T08:32:17.293Z,26.37
2018-12-08T08:37:21.911Z,26.37
2018-12-08T08:42:26.205Z,19.70
2018-12-08T08:47:30.536Z,19.27
2018-12-08T08:52:36.271Z,20.10
2018-12-08T08:57:40.817Z,20.07
2018-12-08T09:08:01.501Z,30.00
2018-12-08T09:13:07.598Z,25.70
2018-12-08T09:18:12.725Z,22.63
2018-12-08T09:23:17.089Z,21.97
2018-12-08T09:28:22.183Z,25.00
2018-12-08T09:33:27.629Z,22.87
2018-12-08T09:38:32.577Z,24.27
2018-12-08T09:43:36.958Z,20.00
2018-12-08T09:48:41.232Z,17.27
2018-12-08T09:53:45.483Z,17.43
2018-12-08T09:58:50.125Z,16.40
2018-12-08T10:03:56.946Z,17.47
2018-12-08T10:09:02.127Z,16.90
2018-12-08T10:14:08.767Z,15.37
2018-12-08T10:19:13.367Z,15.63
2018-12-08T10:24:19.974Z,16.17
2018-12-08T10:29:24.488Z,15.13
2018-12-08T10:34:29.537Z,14.80
2018-12-08T10:39:35.022Z,18.17
2018-12-08T10:44:39.908Z,16.27
2018-12-08T10:49:45.450Z,17.87
2018-12-08T10:54:49.732Z,22.23
2018-12-08T10:59:54.160Z,18.53
2018-12-08T11:05:00.669Z,17.63
2018-12-08T11:10:05.418Z,16.83
2018-12-08T11:15:10.731Z,17.87
2018-12-08T11:20:15.267Z,20.90
2018-12-08T11:25:28.598Z,20.87
2018-12-08T11:30:34.792Z,19.77
2018-12-08T11:35:39.296Z,20.17
2018-12-08T11:40:43.701Z,22.87
2018-12-08T11:45:48.142Z,18.00
2018-12-08T11:50:52.949Z,19.47
2018-12-08T11:56:00.521Z,17.70
2018-12-08T12:01:04.947Z,18.33
2018-12-08T12:06:16.288Z,21.13
2018-12-08T12:11:21.895Z,23.27
2018-12-08T12:16:26.123Z,25.33
2018-12-08T12:21:30.547Z,18.20
2018-12-08T12:26:36.527Z,19.17
2018-12-08T12:31:40.985Z,18.60
2018-12-08T12:36:51.141Z,16.63
2018-12-08T12:41:55.393Z,15.83
2018-12-08T12:46:59.788Z,15.43
2018-12-08T12:52:04.358Z,16.00
2018-12-08T12:57:14.132Z,14.37
2018-12-08T13:02:18.608Z,15.53
2018-12-08T13:07:23.294Z,16.47
2018-12-08T13:12:30.023Z,15.33
2018-12-08T13:17:34.228Z,19.23
2018-12-08T13:22:38.670Z,19.07
2018-12-08T13:27:43.002Z,19.23
2018-12-08T13:32:48.411Z,22.93
2018-12-08T13:37:52.715Z,20.13
2018-12-08T13:42:57.409Z,16.97
2018-12-08T13:48:03.012Z,16.00
2018-12-08T13:53:08.487Z,18.57
2018-12-08T13:58:12.722Z,17.23
2018-12-08T14:03:17.042Z,17.43
2018-12-08T14:08:21.375Z,17.20
2018-12-08T14:13:25.670Z,15.90
2018-12-08T14:18:30.051Z,20.83
2018-12-08T14:23:34.379Z,17.23
2018-12-08T14:28:39.054Z,17.00
2018-12-08T14:33:43.823Z,17.27
2018-12-08T14:38:48.091Z,17.03
2018-12-08T14:43:52.774Z,17.60
2018-12-08T14:48:57.331Z,17.20
2018-12-08T14:54:02.219Z,17.20
2018-12-08T14:59:07.591Z,18.83
2018-12-08T15:04:15.263Z,20.60
2018-12-08T15:09:20.505Z,20.20
2018-12-08T15:14:25.345Z,19.07
2018-12-08T15:19:30.012Z,30.20
2018-12-08T15:24:34.344Z,21.43
2018-12-08T15:29:38.773Z,20.17
2018-12-08T15:34:43.432Z,23.70
2018-12-08T15:39:47.891Z,24.10
2018-12-08T15:44:54.711Z,22.33
2018-12-08T15:49:59.316Z,22.50
2018-12-08T15:55:03.849Z,21.97
2018-12-08T16:00:10.829Z,22.20
2018-12-08T16:05:15.459Z,23.20
2018-12-08T16:10:20.017Z,30.60
2018-12-08T16:15:30.611Z,27.73
2018-12-08T16:20:35.164Z,28.40
2018-12-08T16:25:41.170Z,28.50
2018-12-08T16:30:45.578Z,27.47
2018-12-08T16:35:50.000Z,23.93
2018-12-08T16:40:54.260Z,27.40
2018-12-08T16:46:03.659Z,26.13
2018-12-08T16:51:08.064Z,27.60
2018-12-08T16:56:16.285Z,27.27
2018-12-08T17:01:21.577Z,23.67
2018-12-08T17:06:26.115Z,28.27
2018-12-08T17:11:32.538Z,27.03
2018-12-08T17:16:38.736Z,23.77
2018-12-08T17:21:43.129Z,26.30
2018-12-08T17:26:47.407Z,23.60
2018-12-08T17:31:51.948Z,23.60
2018-12-08T17:36:56.322Z,21.33
2018-12-08T17:42:02.686Z,20.40
2018-12-08T17:47:07.395Z,20.93
2018-12-08T17:52:11.905Z,19.20
2018-12-08T17:57:16.316Z,21.07
2018-12-08T18:02:20.698Z,19.60
2018-12-08T18:07:25.074Z,21.60
2018-12-08T18:12:29.472Z,18.13
2018-12-08T18:17:33.793Z,20.13
2018-12-08T18:22:37.991Z,16.57
2018-12-08T18:27:42.487Z,17.60
2018-12-08T18:32:46.979Z,21.43
2018-12-08T18:37:56.338Z,21.67
2018-12-08T18:43:00.768Z,21.37
2018-12-08T18:48:05.351Z,19.80
2018-12-08T18:53:09.776Z,16.80
2018-12-08T18:58:14.288Z,20.13
2018-12-08T19:08:37.665Z,20.83
2018-12-08T19:13:41.995Z,20.00
2018-12-08T19:18:46.595Z,16.03
2018-12-08T19:23:51.443Z,18.67
2018-12-08T19:28:55.811Z,20.03
2018-12-08T19:34:00.439Z,24.60
2018-12-08T19:39:06.205Z,25.10
2018-12-08T19:44:22.039Z,24.33
2018-12-08T19:49:26.330Z,26.13
2018-12-08T19:54:30.672Z,23.80
2018-12-08T19:59:35.127Z,24.23
2018-12-08T20:04:39.537Z,24.37
2018-12-08T20:09:44.001Z,21.87
2018-12-08T20:14:48.427Z,25.90
2018-12-08T20:19:52.773Z,27.97
2018-12-08T20:24:57.232Z,27.00
2018-12-08T20:30:01.877Z,26.13
2018-12-08T20:35:08.398Z,25.73
2018-12-08T20:40:12.890Z,29.97
2018-12-08T20:45:17.634Z,23.80
2018-12-08T20:50:22.010Z,24.10
2018-12-08T20:55:28.567Z,23.43
2018-12-08T21:00:33.157Z,21.13
2018-12-08T21:05:37.587Z,25.53
2018-12-08T21:10:42.425Z,22.53
2018-12-08T21:15:47.389Z,26.23
2018-12-08T21:20:51.591Z,22.43
2018-12-08T21:25:56.119Z,22.80
2018-12-08T21:31:00.600Z,22.50
2018-12-08T21:36:06.543Z,24.07
2018-12-08T21:41:10.864Z,23.20
2018-12-08T21:46:15.491Z,27.17
2018-12-08T21:51:19.789Z,30.97
2018-12-08T21:56:24.593Z,24.90
2018-12-08T22:06:48.586Z,25.93
2018-12-08T22:11:53.538Z,26.90
2018-12-08T22:16:57.869Z,28.97
2018-12-08T22:22:02.320Z,25.00
2018-12-08T22:27:06.575Z,26.47
2018-12-08T22:32:12.265Z,25.10
2018-12-08T22:37:16.662Z,20.57
2018-12-08T22:42:20.902Z,23.67
2018-12-08T22:47:25.266Z,42.87
2018-12-08T22:52:29.619Z,21.13
2018-12-08T22:57:33.944Z,22.07
2018-12-08T23:02:38.216Z,22.43
2018-12-08T23:07:43.641Z,19.17
2018-12-08T23:12:48.015Z,22.63
2018-12-08T23:17:52.269Z,22.13
2018-12-08T23:22:56.867Z,19.13
2018-12-08T23:28:02.329Z,18.27
2018-12-08T23:33:06.699Z,22.23
2018-12-08T23:38:10.926Z,25.73
2018-12-08T23:43:16.565Z,26.20
2018-12-08T23:48:25.736Z,20.30
2018-12-08T23:53:32.203Z,22.20
2018-12-08T23:58:36.490Z,23.73
